sensor_id;sensor_type;location;lat;lon;timestamp;P1;durP1;ratioP1;P2;durP2;ratioP2
3993;SDS011;2011;48.238;13.948;2023-08-08T00:00:03;5.03;;;2.27;;
3993;SDS011;2011;48.238;13.948;2023-08-08T00:02:31;7.23;;;2.70;;
3993;SDS011;2011;48.238;13.948;2023-08-08T00:04:58;4.50;;;2.40;;
3993;SDS011;2011;48.238;13.948;2023-08-08T00:07:25;6.23;;;2.27;;
3993;SDS011;2011;48.238;13.948;2023-08-08T00:09:55;6.03;;;2.17;;
3993;SDS011;2011;48.238;13.948;2023-08-08T00:12:23;4.10;;;2.27;;
3993;SDS011;2011;48.238;13.948;2023-08-08T00:14:50;5.30;;;2.43;;
3993;SDS011;2011;48.238;13.948;2023-08-08T00:17:17;3.13;;;2.00;;
3993;SDS011;2011;48.238;13.948;2023-08-08T00:19:44;3.90;;;2.17;;
3993;SDS011;2011;48.238;13.948;2023-08-08T00:22:11;4.80;;;2.60;;
3993;SDS011;2011;48.238;13.948;2023-08-08T00:24:37;3.30;;;2.10;;
3993;SDS011;2011;48.238;13.948;2023-08-08T00:27:04;4.57;;;2.27;;
3993;SDS011;2011;48.238;13.948;2023-08-08T00:29:33;12.83;;;2.50;;
3993;SDS011;2011;48.238;13.948;2023-08-08T00:31:59;4.53;;;2.80;;
3993;SDS011;2011;48.238;13.948;2023-08-08T00:34:26;7.83;;;2.43;;
3993;SDS011;2011;48.238;13.948;2023-08-08T00:36:53;5.50;;;2.40;;
3993;SDS011;2011;48.238;13.948;2023-08-08T00:39:20;4.20;;;2.53;;
3993;SDS011;2011;48.238;13.948;2023-08-08T00:41:47;4.57;;;2.20;;
3993;SDS011;2011;48.238;13.948;2023-08-08T00:44:14;9.30;;;2.30;;
3993;SDS011;2011;48.238;13.948;2023-08-08T00:46:42;7.93;;;2.40;;
3993;SDS011;2011;48.238;13.948;2023-08-08T00:49:09;3.53;;;2.27;;
3993;SDS011;2011;48.238;13.948;2023-08-08T00:51:36;4.27;;;2.50;;
3993;SDS011;2011;48.238;13.948;2023-08-08T00:54:04;9.70;;;2.67;;
3993;SDS011;2011;48.238;13.948;2023-08-08T00:56:31;4.47;;;2.20;;
3993;SDS011;2011;48.238;13.948;2023-08-08T00:58:59;3.90;;;2.40;;
3993;SDS011;2011;48.238;13.948;2023-08-08T01:01:25;5.00;;;2.60;;
3993;SDS011;2011;48.238;13.948;2023-08-08T01:03:54;4.97;;;2.10;;
3993;SDS011;2011;48.238;13.948;2023-08-08T01:06:23;3.70;;;2.10;;
3993;SDS011;2011;48.238;13.948;2023-08-08T01:08:56;3.40;;;2.20;;
3993;SDS011;2011;48.238;13.948;2023-08-08T01:11:26;3.23;;;1.93;;
3993;SDS011;2011;48.238;13.948;2023-08-08T01:13:55;6.40;;;2.43;;
3993;SDS011;2011;48.238;13.948;2023-08-08T01:16:22;3.80;;;2.03;;
3993;SDS011;2011;48.238;13.948;2023-08-08T01:18:51;5.50;;;2.83;;
3993;SDS011;2011;48.238;13.948;2023-08-08T01:21:20;4.33;;;2.00;;
3993;SDS011;2011;48.238;13.948;2023-08-08T01:23:52;7.13;;;2.30;;
3993;SDS011;2011;48.238;13.948;2023-08-08T01:26:23;4.40;;;1.93;;
3993;SDS011;2011;48.238;13.948;2023-08-08T01:28:52;4.30;;;2.10;;
3993;SDS011;2011;48.238;13.948;2023-08-08T01:31:19;4.40;;;2.37;;
3993;SDS011;2011;48.238;13.948;2023-08-08T01:33:46;4.03;;;2.17;;
3993;SDS011;2011;48.238;13.948;2023-08-08T01:36:18;6.37;;;2.17;;
3993;SDS011;2011;48.238;13.948;2023-08-08T01:38:51;5.17;;;2.33;;
3993;SDS011;2011;48.238;13.948;2023-08-08T01:41:21;4.60;;;2.30;;
3993;SDS011;2011;48.238;13.948;2023-08-08T01:43:50;3.43;;;2.17;;
3993;SDS011;2011;48.238;13.948;2023-08-08T01:46:18;3.50;;;2.00;;
3993;SDS011;2011;48.238;13.948;2023-08-08T01:48:46;3.10;;;1.83;;
3993;SDS011;2011;48.238;13.948;2023-08-08T01:51:13;3.80;;;1.90;;
3993;SDS011;2011;48.238;13.948;2023-08-08T01:53:40;5.90;;;1.70;;
3993;SDS011;2011;48.238;13.948;2023-08-08T01:56:07;8.50;;;1.97;;
3993;SDS011;2011;48.238;13.948;2023-08-08T01:58:34;4.80;;;2.30;;
3993;SDS011;2011;48.238;13.948;2023-08-08T02:01:02;7.87;;;2.20;;
3993;SDS011;2011;48.238;13.948;2023-08-08T02:03:29;6.53;;;2.50;;
3993;SDS011;2011;48.238;13.948;2023-08-08T02:05:56;5.43;;;2.20;;
3993;SDS011;2011;48.238;13.948;2023-08-08T02:08:24;7.80;;;2.40;;
3993;SDS011;2011;48.238;13.948;2023-08-08T02:10:51;4.70;;;2.20;;
3993;SDS011;2011;48.238;13.948;2023-08-08T02:13:18;4.80;;;2.53;;
3993;SDS011;2011;48.238;13.948;2023-08-08T02:15:45;4.00;;;2.53;;
3993;SDS011;2011;48.238;13.948;2023-08-08T02:18:13;3.63;;;2.33;;
3993;SDS011;2011;48.238;13.948;2023-08-08T02:20:40;4.00;;;2.50;;
3993;SDS011;2011;48.238;13.948;2023-08-08T02:23:07;6.30;;;2.60;;
3993;SDS011;2011;48.238;13.948;2023-08-08T02:25:34;8.50;;;2.43;;
3993;SDS011;2011;48.238;13.948;2023-08-08T02:28:01;7.57;;;2.87;;
3993;SDS011;2011;48.238;13.948;2023-08-08T02:30:29;7.10;;;2.17;;
3993;SDS011;2011;48.238;13.948;2023-08-08T02:32:56;4.30;;;2.10;;
3993;SDS011;2011;48.238;13.948;2023-08-08T02:35:24;9.10;;;2.50;;
3993;SDS011;2011;48.238;13.948;2023-08-08T02:37:51;4.97;;;2.93;;
3993;SDS011;2011;48.238;13.948;2023-08-08T02:40:18;6.30;;;2.60;;
3993;SDS011;2011;48.238;13.948;2023-08-08T02:42:48;6.40;;;2.80;;
3993;SDS011;2011;48.238;13.948;2023-08-08T02:45:15;7.70;;;2.47;;
3993;SDS011;2011;48.238;13.948;2023-08-08T02:47:42;4.03;;;1.97;;
3993;SDS011;2011;48.238;13.948;2023-08-08T02:50:09;8.60;;;3.37;;
3993;SDS011;2011;48.238;13.948;2023-08-08T02:52:38;9.13;;;3.03;;
3993;SDS011;2011;48.238;13.948;2023-08-08T02:55:05;4.50;;;2.23;;
3993;SDS011;2011;48.238;13.948;2023-08-08T02:57:33;11.00;;;2.53;;
3993;SDS011;2011;48.238;13.948;2023-08-08T03:00:00;12.57;;;2.23;;
3993;SDS011;2011;48.238;13.948;2023-08-08T03:02:29;7.83;;;2.30;;
3993;SDS011;2011;48.238;13.948;2023-08-08T03:04:56;4.70;;;2.10;;
3993;SDS011;2011;48.238;13.948;2023-08-08T03:07:23;3.73;;;2.30;;
3993;SDS011;2011;48.238;13.948;2023-08-08T03:09:51;4.27;;;2.50;;
3993;SDS011;2011;48.238;13.948;2023-08-08T03:12:18;9.00;;;3.00;;
3993;SDS011;2011;48.238;13.948;2023-08-08T03:14:45;6.17;;;2.60;;
3993;SDS011;2011;48.238;13.948;2023-08-08T03:17:12;6.33;;;2.47;;
3993;SDS011;2011;48.238;13.948;2023-08-08T03:19:39;3.80;;;2.57;;
3993;SDS011;2011;48.238;13.948;2023-08-08T03:22:06;4.20;;;2.10;;
3993;SDS011;2011;48.238;13.948;2023-08-08T03:24:33;4.40;;;2.00;;
3993;SDS011;2011;48.238;13.948;2023-08-08T03:27:02;17.00;;;2.37;;
3993;SDS011;2011;48.238;13.948;2023-08-08T03:29:29;9.67;;;2.57;;
3993;SDS011;2011;48.238;13.948;2023-08-08T03:31:56;4.00;;;2.33;;
3993;SDS011;2011;48.238;13.948;2023-08-08T03:34:23;4.67;;;2.37;;
3993;SDS011;2011;48.238;13.948;2023-08-08T03:36:50;5.83;;;2.00;;
3993;SDS011;2011;48.238;13.948;2023-08-08T03:39:17;12.10;;;2.60;;
3993;SDS011;2011;48.238;13.948;2023-08-08T03:41:44;3.80;;;2.00;;
3993;SDS011;2011;48.238;13.948;2023-08-08T03:44:13;5.53;;;2.10;;
3993;SDS011;2011;48.238;13.948;2023-08-08T03:46:40;3.63;;;1.93;;
3993;SDS011;2011;48.238;13.948;2023-08-08T03:49:07;4.47;;;2.47;;
3993;SDS011;2011;48.238;13.948;2023-08-08T03:51:34;4.10;;;2.20;;
3993;SDS011;2011;48.238;13.948;2023-08-08T03:54:01;4.13;;;2.43;;
3993;SDS011;2011;48.238;13.948;2023-08-08T03:56:28;3.30;;;1.77;;
3993;SDS011;2011;48.238;13.948;2023-08-08T03:58:55;7.03;;;2.30;;
3993;SDS011;2011;48.238;13.948;2023-08-08T04:01:25;3.93;;;2.30;;
3993;SDS011;2011;48.238;13.948;2023-08-08T04:03:52;7.10;;;2.30;;
3993;SDS011;2011;48.238;13.948;2023-08-08T04:06:19;6.37;;;2.27;;
3993;SDS011;2011;48.238;13.948;2023-08-08T04:08:46;5.03;;;1.87;;
3993;SDS011;2011;48.238;13.948;2023-08-08T04:11:13;4.40;;;2.50;;
3993;SDS011;2011;48.238;13.948;2023-08-08T04:13:40;5.00;;;2.43;;
3993;SDS011;2011;48.238;13.948;2023-08-08T04:16:07;4.33;;;1.80;;
3993;SDS011;2011;48.238;13.948;2023-08-08T04:18:36;6.33;;;2.63;;
3993;SDS011;2011;48.238;13.948;2023-08-08T04:21:03;3.53;;;2.30;;
3993;SDS011;2011;48.238;13.948;2023-08-08T04:23:30;4.13;;;2.13;;
3993;SDS011;2011;48.238;13.948;2023-08-08T04:25:57;6.13;;;2.70;;
3993;SDS011;2011;48.238;13.948;2023-08-08T04:28:24;4.97;;;2.80;;
3993;SDS011;2011;48.238;13.948;2023-08-08T04:30:51;6.10;;;3.23;;
3993;SDS011;2011;48.238;13.948;2023-08-08T04:33:18;8.23;;;2.80;;
3993;SDS011;2011;48.238;13.948;2023-08-08T04:35:46;4.43;;;2.53;;
3993;SDS011;2011;48.238;13.948;2023-08-08T04:38:14;3.60;;;2.10;;
3993;SDS011;2011;48.238;13.948;2023-08-08T04:40:41;4.57;;;2.57;;
3993;SDS011;2011;48.238;13.948;2023-08-08T04:43:08;4.90;;;2.40;;
3993;SDS011;2011;48.238;13.948;2023-08-08T04:45:35;6.70;;;2.53;;
3993;SDS011;2011;48.238;13.948;2023-08-08T04:48:02;4.53;;;2.60;;
3993;SDS011;2011;48.238;13.948;2023-08-08T04:50:30;10.73;;;2.30;;
3993;SDS011;2011;48.238;13.948;2023-08-08T04:52:58;3.57;;;2.10;;
3993;SDS011;2011;48.238;13.948;2023-08-08T04:55:25;5.87;;;2.67;;
3993;SDS011;2011;48.238;13.948;2023-08-08T04:57:52;4.07;;;2.20;;
3993;SDS011;2011;48.238;13.948;2023-08-08T05:00:19;4.27;;;2.40;;
3993;SDS011;2011;48.238;13.948;2023-08-08T05:02:46;4.30;;;2.40;;
3993;SDS011;2011;48.238;13.948;2023-08-08T05:05:13;4.60;;;2.50;;
3993;SDS011;2011;48.238;13.948;2023-08-08T05:07:40;5.70;;;2.30;;
3993;SDS011;2011;48.238;13.948;2023-08-08T05:10:09;5.63;;;2.17;;
3993;SDS011;2011;48.238;13.948;2023-08-08T05:12:36;4.67;;;2.40;;
3993;SDS011;2011;48.238;13.948;2023-08-08T05:15:03;3.93;;;2.40;;
3993;SDS011;2011;48.238;13.948;2023-08-08T05:17:31;5.90;;;2.90;;
3993;SDS011;2011;48.238;13.948;2023-08-08T05:19:58;8.07;;;2.20;;
3993;SDS011;2011;48.238;13.948;2023-08-08T05:22:25;6.83;;;2.60;;
3993;SDS011;2011;48.238;13.948;2023-08-08T05:24:52;5.00;;;2.57;;
3993;SDS011;2011;48.238;13.948;2023-08-08T05:27:21;4.70;;;2.10;;
3993;SDS011;2011;48.238;13.948;2023-08-08T05:29:48;4.10;;;2.40;;
3993;SDS011;2011;48.238;13.948;2023-08-08T05:32:15;4.17;;;2.33;;
3993;SDS011;2011;48.238;13.948;2023-08-08T05:34:42;6.50;;;2.30;;
3993;SDS011;2011;48.238;13.948;2023-08-08T05:37:09;10.30;;;2.90;;
3993;SDS011;2011;48.238;13.948;2023-08-08T05:39:36;6.60;;;2.90;;
3993;SDS011;2011;48.238;13.948;2023-08-08T05:42:03;5.50;;;3.10;;
3993;SDS011;2011;48.238;13.948;2023-08-08T05:44:32;6.43;;;2.70;;
3993;SDS011;2011;48.238;13.948;2023-08-08T05:46:59;7.77;;;2.90;;
3993;SDS011;2011;48.238;13.948;2023-08-08T05:49:26;4.83;;;2.57;;
3993;SDS011;2011;48.238;13.948;2023-08-08T05:51:53;4.90;;;2.93;;
3993;SDS011;2011;48.238;13.948;2023-08-08T05:54:20;6.90;;;4.10;;
3993;SDS011;2011;48.238;13.948;2023-08-08T05:56:47;6.67;;;3.87;;
3993;SDS011;2011;48.238;13.948;2023-08-08T05:59:14;10.00;;;4.20;;
3993;SDS011;2011;48.238;13.948;2023-08-08T06:01:42;7.50;;;3.70;;
3993;SDS011;2011;48.238;13.948;2023-08-08T06:04:10;12.27;;;4.27;;
3993;SDS011;2011;48.238;13.948;2023-08-08T06:06:37;11.30;;;4.10;;
3993;SDS011;2011;48.238;13.948;2023-08-08T06:09:04;8.70;;;3.40;;
3993;SDS011;2011;48.238;13.948;2023-08-08T06:11:31;7.60;;;3.20;;
3993;SDS011;2011;48.238;13.948;2023-08-08T06:13:58;5.20;;;2.70;;
3993;SDS011;2011;48.238;13.948;2023-08-08T06:16:25;6.50;;;2.97;;
3993;SDS011;2011;48.238;13.948;2023-08-08T06:18:53;3.53;;;2.27;;
3993;SDS011;2011;48.238;13.948;2023-08-08T06:21:20;5.80;;;3.73;;
3993;SDS011;2011;48.238;13.948;2023-08-08T06:23:47;7.13;;;3.23;;
3993;SDS011;2011;48.238;13.948;2023-08-08T06:26:15;9.53;;;3.73;;
3993;SDS011;2011;48.238;13.948;2023-08-08T06:28:42;6.97;;;3.67;;
3993;SDS011;2011;48.238;13.948;2023-08-08T06:31:09;7.53;;;3.90;;
3993;SDS011;2011;48.238;13.948;2023-08-08T06:33:36;7.47;;;4.13;;
3993;SDS011;2011;48.238;13.948;2023-08-08T06:36:05;11.00;;;4.60;;
3993;SDS011;2011;48.238;13.948;2023-08-08T06:38:32;7.27;;;3.53;;
3993;SDS011;2011;48.238;13.948;2023-08-08T06:40:59;6.80;;;3.20;;
3993;SDS011;2011;48.238;13.948;2023-08-08T06:43:26;6.47;;;3.00;;
3993;SDS011;2011;48.238;13.948;2023-08-08T06:45:53;5.47;;;3.20;;
3993;SDS011;2011;48.238;13.948;2023-08-08T06:48:21;7.93;;;3.03;;
3993;SDS011;2011;48.238;13.948;2023-08-08T06:50:49;6.13;;;3.30;;
3993;SDS011;2011;48.238;13.948;2023-08-08T06:53:17;5.77;;;3.30;;
3993;SDS011;2011;48.238;13.948;2023-08-08T06:55:44;4.70;;;3.17;;
3993;SDS011;2011;48.238;13.948;2023-08-08T06:58:11;8.03;;;3.63;;
3993;SDS011;2011;48.238;13.948;2023-08-08T07:00:38;5.50;;;3.03;;
3993;SDS011;2011;48.238;13.948;2023-08-08T07:03:05;6.70;;;2.90;;
3993;SDS011;2011;48.238;13.948;2023-08-08T07:05:32;6.30;;;3.13;;
3993;SDS011;2011;48.238;13.948;2023-08-08T07:07:59;6.60;;;2.93;;
3993;SDS011;2011;48.238;13.948;2023-08-08T07:10:28;6.10;;;2.60;;
3993;SDS011;2011;48.238;13.948;2023-08-08T07:12:55;7.03;;;2.77;;
3993;SDS011;2011;48.238;13.948;2023-08-08T07:15:22;4.63;;;2.80;;
3993;SDS011;2011;48.238;13.948;2023-08-08T07:17:50;4.53;;;2.90;;
3993;SDS011;2011;48.238;13.948;2023-08-08T07:20:17;5.10;;;2.63;;
3993;SDS011;2011;48.238;13.948;2023-08-08T07:22:44;5.60;;;3.00;;
3993;SDS011;2011;48.238;13.948;2023-08-08T07:25:11;5.33;;;2.33;;
3993;SDS011;2011;48.238;13.948;2023-08-08T07:27:39;5.00;;;2.43;;
3993;SDS011;2011;48.238;13.948;2023-08-08T07:30:07;4.90;;;2.60;;
3993;SDS011;2011;48.238;13.948;2023-08-08T07:32:34;4.03;;;2.20;;
3993;SDS011;2011;48.238;13.948;2023-08-08T07:35:02;4.17;;;2.37;;
3993;SDS011;2011;48.238;13.948;2023-08-08T07:37:31;5.00;;;2.70;;
3993;SDS011;2011;48.238;13.948;2023-08-08T07:39:58;5.73;;;3.10;;
3993;SDS011;2011;48.238;13.948;2023-08-08T07:42:25;5.07;;;2.60;;
3993;SDS011;2011;48.238;13.948;2023-08-08T07:44:54;13.70;;;2.73;;
3993;SDS011;2011;48.238;13.948;2023-08-08T07:47:21;4.60;;;2.23;;
3993;SDS011;2011;48.238;13.948;2023-08-08T07:49:48;5.00;;;2.33;;
3993;SDS011;2011;48.238;13.948;2023-08-08T07:52:16;4.10;;;2.40;;
3993;SDS011;2011;48.238;13.948;2023-08-08T07:54:43;6.17;;;2.10;;
3993;SDS011;2011;48.238;13.948;2023-08-08T07:57:10;5.30;;;2.30;;
3993;SDS011;2011;48.238;13.948;2023-08-08T07:59:37;5.03;;;2.60;;
3993;SDS011;2011;48.238;13.948;2023-08-08T08:02:05;5.30;;;2.70;;
3993;SDS011;2011;48.238;13.948;2023-08-08T08:04:33;5.67;;;3.10;;
3993;SDS011;2011;48.238;13.948;2023-08-08T08:07:00;5.90;;;2.53;;
3993;SDS011;2011;48.238;13.948;2023-08-08T08:09:28;8.33;;;2.20;;
3993;SDS011;2011;48.238;13.948;2023-08-08T08:11:55;6.57;;;2.60;;
3993;SDS011;2011;48.238;13.948;2023-08-08T08:14:22;5.00;;;2.00;;
3993;SDS011;2011;48.238;13.948;2023-08-08T08:16:49;6.27;;;1.90;;
3993;SDS011;2011;48.238;13.948;2023-08-08T08:19:18;4.50;;;2.00;;
3993;SDS011;2011;48.238;13.948;2023-08-08T08:21:45;4.50;;;1.87;;
3993;SDS011;2011;48.238;13.948;2023-08-08T08:24:12;3.90;;;2.10;;
3993;SDS011;2011;48.238;13.948;2023-08-08T08:26:39;4.47;;;2.30;;
3993;SDS011;2011;48.238;13.948;2023-08-08T08:29:07;3.10;;;1.40;;
3993;SDS011;2011;48.238;13.948;2023-08-08T08:31:34;4.50;;;1.47;;
3993;SDS011;2011;48.238;13.948;2023-08-08T08:34:02;3.27;;;1.53;;
3993;SDS011;2011;48.238;13.948;2023-08-08T08:36:31;4.10;;;1.50;;
3993;SDS011;2011;48.238;13.948;2023-08-08T08:38:58;3.40;;;1.67;;
3993;SDS011;2011;48.238;13.948;2023-08-08T08:41:26;8.23;;;1.90;;
3993;SDS011;2011;48.238;13.948;2023-08-08T08:43:54;3.90;;;1.70;;
3993;SDS011;2011;48.238;13.948;2023-08-08T08:46:22;5.80;;;1.47;;
3993;SDS011;2011;48.238;13.948;2023-08-08T08:48:51;3.77;;;1.57;;
3993;SDS011;2011;48.238;13.948;2023-08-08T08:51:21;7.30;;;1.60;;
3993;SDS011;2011;48.238;13.948;2023-08-08T08:53:50;3.73;;;1.67;;
3993;SDS011;2011;48.238;13.948;2023-08-08T08:56:17;4.13;;;1.70;;
3993;SDS011;2011;48.238;13.948;2023-08-08T08:58:45;4.10;;;1.50;;
3993;SDS011;2011;48.238;13.948;2023-08-08T09:01:12;4.40;;;1.50;;
3993;SDS011;2011;48.238;13.948;2023-08-08T09:03:41;4.80;;;1.73;;
3993;SDS011;2011;48.238;13.948;2023-08-08T09:06:11;6.33;;;1.60;;
3993;SDS011;2011;48.238;13.948;2023-08-08T09:08:38;4.77;;;1.60;;
3993;SDS011;2011;48.238;13.948;2023-08-08T09:11:06;3.30;;;1.40;;
3993;SDS011;2011;48.238;13.948;2023-08-08T09:13:36;3.07;;;1.50;;
3993;SDS011;2011;48.238;13.948;2023-08-08T09:16:05;3.90;;;1.50;;
3993;SDS011;2011;48.238;13.948;2023-08-08T09:18:33;4.47;;;1.70;;
3993;SDS011;2011;48.238;13.948;2023-08-08T09:21:03;8.27;;;1.70;;
3993;SDS011;2011;48.238;13.948;2023-08-08T09:23:30;3.63;;;1.50;;
3993;SDS011;2011;48.238;13.948;2023-08-08T09:25:57;6.37;;;1.83;;
3993;SDS011;2011;48.238;13.948;2023-08-08T09:28:26;3.37;;;1.40;;
3993;SDS011;2011;48.238;13.948;2023-08-08T09:30:53;4.27;;;1.77;;
3993;SDS011;2011;48.238;13.948;2023-08-08T09:33:20;4.60;;;1.70;;
3993;SDS011;2011;48.238;13.948;2023-08-08T09:35:47;3.90;;;1.43;;
3993;SDS011;2011;48.238;13.948;2023-08-08T09:38:14;5.40;;;1.40;;
3993;SDS011;2011;48.238;13.948;2023-08-08T09:40:42;4.70;;;1.30;;
3993;SDS011;2011;48.238;13.948;2023-08-08T09:43:09;4.80;;;1.60;;
3993;SDS011;2011;48.238;13.948;2023-08-08T09:45:39;4.23;;;1.93;;
3993;SDS011;2011;48.238;13.948;2023-08-08T09:48:07;4.30;;;1.60;;
3993;SDS011;2011;48.238;13.948;2023-08-08T09:50:35;4.03;;;1.50;;
3993;SDS011;2011;48.238;13.948;2023-08-08T09:53:02;4.03;;;1.60;;
3993;SDS011;2011;48.238;13.948;2023-08-08T09:55:29;7.00;;;1.37;;
3993;SDS011;2011;48.238;13.948;2023-08-08T09:57:57;5.17;;;1.93;;
3993;SDS011;2011;48.238;13.948;2023-08-08T10:00:24;3.50;;;1.50;;
3993;SDS011;2011;48.238;13.948;2023-08-08T10:02:54;4.53;;;1.73;;
3993;SDS011;2011;48.238;13.948;2023-08-08T10:05:21;3.63;;;1.57;;
3993;SDS011;2011;48.238;13.948;2023-08-08T10:07:50;4.07;;;1.73;;
3993;SDS011;2011;48.238;13.948;2023-08-08T10:10:17;3.60;;;1.53;;
3993;SDS011;2011;48.238;13.948;2023-08-08T10:12:45;5.00;;;1.40;;
3993;SDS011;2011;48.238;13.948;2023-08-08T10:15:12;3.97;;;1.50;;
3993;SDS011;2011;48.238;13.948;2023-08-08T10:17:40;3.70;;;1.17;;
3993;SDS011;2011;48.238;13.948;2023-08-08T10:20:10;5.50;;;1.30;;
3993;SDS011;2011;48.238;13.948;2023-08-08T10:22:37;4.13;;;1.50;;
3993;SDS011;2011;48.238;13.948;2023-08-08T10:25:16;7.77;;;1.63;;
3993;SDS011;2011;48.238;13.948;2023-08-08T10:27:44;4.07;;;1.77;;
3993;SDS011;2011;48.238;13.948;2023-08-08T10:30:11;4.17;;;1.60;;
3993;SDS011;2011;48.238;13.948;2023-08-08T10:32:39;4.40;;;1.60;;
3993;SDS011;2011;48.238;13.948;2023-08-08T10:35:09;4.53;;;1.43;;
3993;SDS011;2011;48.238;13.948;2023-08-08T10:37:38;5.43;;;1.50;;
3993;SDS011;2011;48.238;13.948;2023-08-08T10:40:06;4.90;;;1.30;;
3993;SDS011;2011;48.238;13.948;2023-08-08T10:42:41;3.60;;;1.47;;
3993;SDS011;2011;48.238;13.948;2023-08-08T10:45:09;5.93;;;1.63;;
3993;SDS011;2011;48.238;13.948;2023-08-08T10:47:38;5.67;;;1.87;;
3993;SDS011;2011;48.238;13.948;2023-08-08T10:50:06;4.37;;;1.67;;
3993;SDS011;2011;48.238;13.948;2023-08-08T10:52:49;5.17;;;1.47;;
3993;SDS011;2011;48.238;13.948;2023-08-08T10:55:20;3.47;;;1.30;;
3993;SDS011;2011;48.238;13.948;2023-08-08T10:57:55;5.20;;;1.80;;
3993;SDS011;2011;48.238;13.948;2023-08-08T11:03:47;4.80;;;1.80;;
3993;SDS011;2011;48.238;13.948;2023-08-08T11:06:15;4.77;;;1.50;;
3993;SDS011;2011;48.238;13.948;2023-08-08T11:08:44;4.13;;;1.53;;
3993;SDS011;2011;48.238;13.948;2023-08-08T11:11:11;3.33;;;1.50;;
3993;SDS011;2011;48.238;13.948;2023-08-08T11:13:38;5.17;;;1.50;;
3993;SDS011;2011;48.238;13.948;2023-08-08T11:16:08;4.47;;;1.50;;
3993;SDS011;2011;48.238;13.948;2023-08-08T11:25:27;5.70;;;1.77;;
3993;SDS011;2011;48.238;13.948;2023-08-08T11:27:58;5.07;;;1.70;;
3993;SDS011;2011;48.238;13.948;2023-08-08T11:30:32;6.03;;;1.50;;
3993;SDS011;2011;48.238;13.948;2023-08-08T11:33:06;5.00;;;1.57;;
3993;SDS011;2011;48.238;13.948;2023-08-08T11:35:33;5.50;;;1.47;;
3993;SDS011;2011;48.238;13.948;2023-08-08T11:38:02;4.93;;;1.53;;
3993;SDS011;2011;48.238;13.948;2023-08-08T11:40:32;5.70;;;1.40;;
3993;SDS011;2011;48.238;13.948;2023-08-08T11:42:59;4.40;;;1.70;;
3993;SDS011;2011;48.238;13.948;2023-08-08T11:45:26;4.67;;;1.90;;
3993;SDS011;2011;48.238;13.948;2023-08-08T11:47:53;3.30;;;1.57;;
3993;SDS011;2011;48.238;13.948;2023-08-08T11:50:22;7.00;;;2.00;;
3993;SDS011;2011;48.238;13.948;2023-08-08T11:52:50;5.90;;;1.87;;
3993;SDS011;2011;48.238;13.948;2023-08-08T11:55:19;4.50;;;1.80;;
3993;SDS011;2011;48.238;13.948;2023-08-08T11:57:49;4.87;;;1.50;;
3993;SDS011;2011;48.238;13.948;2023-08-08T12:00:18;3.93;;;1.43;;
3993;SDS011;2011;48.238;13.948;2023-08-08T12:02:45;3.17;;;1.40;;
3993;SDS011;2011;48.238;13.948;2023-08-08T12:05:13;4.50;;;1.57;;
3993;SDS011;2011;48.238;13.948;2023-08-08T12:07:42;4.50;;;1.63;;
3993;SDS011;2011;48.238;13.948;2023-08-08T12:10:14;10.43;;;1.67;;
3993;SDS011;2011;48.238;13.948;2023-08-08T12:12:42;4.53;;;1.40;;
3993;SDS011;2011;48.238;13.948;2023-08-08T12:15:11;3.00;;;1.20;;
3993;SDS011;2011;48.238;13.948;2023-08-08T12:17:39;3.87;;;1.80;;
3993;SDS011;2011;48.238;13.948;2023-08-08T12:20:06;5.03;;;1.73;;
3993;SDS011;2011;48.238;13.948;2023-08-08T12:22:35;6.67;;;1.47;;
3993;SDS011;2011;48.238;13.948;2023-08-08T12:25:03;4.83;;;1.37;;
3993;SDS011;2011;48.238;13.948;2023-08-08T12:27:30;3.63;;;1.43;;
3993;SDS011;2011;48.238;13.948;2023-08-08T12:29:57;10.90;;;1.60;;
3993;SDS011;2011;48.238;13.948;2023-08-08T12:32:26;11.50;;;1.70;;
3993;SDS011;2011;48.238;13.948;2023-08-08T12:34:56;5.40;;;1.60;;
3993;SDS011;2011;48.238;13.948;2023-08-08T12:37:24;4.00;;;1.50;;
3993;SDS011;2011;48.238;13.948;2023-08-08T12:39:52;3.77;;;1.60;;
3993;SDS011;2011;48.238;13.948;2023-08-08T12:42:19;3.40;;;1.33;;
3993;SDS011;2011;48.238;13.948;2023-08-08T12:44:46;4.40;;;1.80;;
3993;SDS011;2011;48.238;13.948;2023-08-08T12:47:16;4.00;;;1.40;;
3993;SDS011;2011;48.238;13.948;2023-08-08T12:49:45;7.63;;;1.67;;
3993;SDS011;2011;48.238;13.948;2023-08-08T12:52:12;4.40;;;1.77;;
3993;SDS011;2011;48.238;13.948;2023-08-08T12:54:39;5.23;;;1.63;;
3993;SDS011;2011;48.238;13.948;2023-08-08T12:57:06;3.80;;;1.40;;
3993;SDS011;2011;48.238;13.948;2023-08-08T12:59:34;5.17;;;1.93;;
3993;SDS011;2011;48.238;13.948;2023-08-08T13:02:02;4.33;;;2.03;;
3993;SDS011;2011;48.238;13.948;2023-08-08T13:04:29;4.97;;;1.80;;
3993;SDS011;2011;48.238;13.948;2023-08-08T13:06:57;4.30;;;1.37;;
3993;SDS011;2011;48.238;13.948;2023-08-08T13:09:24;4.20;;;1.60;;
3993;SDS011;2011;48.238;13.948;2023-08-08T13:11:51;3.53;;;1.40;;
3993;SDS011;2011;48.238;13.948;2023-08-08T13:14:18;4.60;;;1.50;;
3993;SDS011;2011;48.238;13.948;2023-08-08T13:16:45;3.93;;;1.70;;
3993;SDS011;2011;48.238;13.948;2023-08-08T13:19:12;4.57;;;1.57;;
3993;SDS011;2011;48.238;13.948;2023-08-08T13:21:40;4.20;;;1.60;;
3993;SDS011;2011;48.238;13.948;2023-08-08T13:24:09;4.50;;;1.57;;
3993;SDS011;2011;48.238;13.948;2023-08-08T13:26:38;6.10;;;1.73;;
3993;SDS011;2011;48.238;13.948;2023-08-08T13:29:05;3.40;;;1.50;;
3993;SDS011;2011;48.238;13.948;2023-08-08T13:31:33;4.47;;;1.90;;
3993;SDS011;2011;48.238;13.948;2023-08-08T13:34:00;5.60;;;1.33;;
3993;SDS011;2011;48.238;13.948;2023-08-08T13:36:27;3.60;;;1.50;;
3993;SDS011;2011;48.238;13.948;2023-08-08T13:38:54;4.70;;;1.53;;
3993;SDS011;2011;48.238;13.948;2023-08-08T13:41:22;3.67;;;1.40;;
3993;SDS011;2011;48.238;13.948;2023-08-08T13:43:50;3.77;;;1.47;;
3993;SDS011;2011;48.238;13.948;2023-08-08T13:46:17;4.07;;;1.63;;
3993;SDS011;2011;48.238;13.948;2023-08-08T13:48:44;4.27;;;1.33;;
3993;SDS011;2011;48.238;13.948;2023-08-08T13:51:11;5.00;;;1.63;;
3993;SDS011;2011;48.238;13.948;2023-08-08T13:53:38;4.60;;;1.60;;
3993;SDS011;2011;48.238;13.948;2023-08-08T13:56:05;4.80;;;1.53;;
3993;SDS011;2011;48.238;13.948;2023-08-08T13:58:34;3.97;;;1.47;;
3993;SDS011;2011;48.238;13.948;2023-08-08T14:01:01;5.30;;;1.50;;
3993;SDS011;2011;48.238;13.948;2023-08-08T14:03:28;4.40;;;2.00;;
3993;SDS011;2011;48.238;13.948;2023-08-08T14:05:55;9.50;;;1.63;;
3993;SDS011;2011;48.238;13.948;2023-08-08T14:08:22;5.13;;;1.73;;
3993;SDS011;2011;48.238;13.948;2023-08-08T14:10:49;5.33;;;1.43;;
3993;SDS011;2011;48.238;13.948;2023-08-08T14:13:17;3.93;;;1.50;;
3993;SDS011;2011;48.238;13.948;2023-08-08T14:15:46;5.07;;;1.63;;
3993;SDS011;2011;48.238;13.948;2023-08-08T14:18:13;4.37;;;1.60;;
3993;SDS011;2011;48.238;13.948;2023-08-08T14:20:40;3.53;;;1.50;;
3993;SDS011;2011;48.238;13.948;2023-08-08T14:23:07;5.10;;;1.57;;
3993;SDS011;2011;48.238;13.948;2023-08-08T14:25:35;5.63;;;1.60;;
3993;SDS011;2011;48.238;13.948;2023-08-08T14:28:02;5.20;;;1.60;;
3993;SDS011;2011;48.238;13.948;2023-08-08T14:30:30;4.70;;;1.70;;
3993;SDS011;2011;48.238;13.948;2023-08-08T14:32:59;4.20;;;1.50;;
3993;SDS011;2011;48.238;13.948;2023-08-08T14:35:26;10.70;;;1.63;;
3993;SDS011;2011;48.238;13.948;2023-08-08T14:37:54;5.70;;;1.37;;
3993;SDS011;2011;48.238;13.948;2023-08-08T14:40:21;3.97;;;1.47;;
3993;SDS011;2011;48.238;13.948;2023-08-08T14:42:48;11.60;;;1.77;;
3993;SDS011;2011;48.238;13.948;2023-08-08T14:45:16;5.60;;;1.70;;
3993;SDS011;2011;48.238;13.948;2023-08-08T14:47:43;4.07;;;1.60;;
3993;SDS011;2011;48.238;13.948;2023-08-08T14:50:12;5.00;;;1.50;;
3993;SDS011;2011;48.238;13.948;2023-08-08T14:52:39;3.93;;;1.50;;
3993;SDS011;2011;48.238;13.948;2023-08-08T14:55:06;3.87;;;1.37;;
3993;SDS011;2011;48.238;13.948;2023-08-08T14:57:34;8.63;;;1.60;;
3993;SDS011;2011;48.238;13.948;2023-08-08T15:00:02;5.07;;;1.73;;
3993;SDS011;2011;48.238;13.948;2023-08-08T15:02:31;3.60;;;1.30;;
3993;SDS011;2011;48.238;13.948;2023-08-08T15:04:58;5.43;;;1.77;;
3993;SDS011;2011;48.238;13.948;2023-08-08T15:07:27;4.40;;;1.57;;
3993;SDS011;2011;48.238;13.948;2023-08-08T15:09:54;5.97;;;1.70;;
3993;SDS011;2011;48.238;13.948;2023-08-08T15:12:22;4.23;;;1.50;;